KMLC

Mc Alester Regional Airport

Mc Alester, Oklahoma, USA
METAR KMLC 201616Z AUTO 27007KT 230V300 10SM BKN028 24/18 A2998 RMK AO2 T02440183
Observed Flight Rules
Aug-20 @ 16:16 UTC (8 minutes ago) Marginal Visual Flight Rules
Wind Visibility Clouds
270° at 7 knots 10 miles
  • Broken at 2,800' AGL
Temperatures Readings
Current 24°C / 75°F
Dewpoint 18°C / 64°F
Humidity 69%
Altimeter 29.98" Hg
Pressure 1015 hPa
Elevation 232
METAR KMLC 201616Z AUTO 27007KT 230V300 10SM BKN028 24/18 A2998 RMK AO2 T02440183
Observed Flight Rules
Aug-20 @ 16:16 UTC
(8 minutes ago)
MVFR
Wind Visibility
270° at 7 knots 10 miles
Clouds
  • Broken at 2,800' AGL
Temperature Dewpoint
24°C / 75°F 18°C / 64°F
Humidity Altimeter Pressure
69% 29.98" Hg 1015 hPa